createdAt,value
2022-09-23T00:05:42.120Z,6.00
2022-09-23T00:15:47.023Z,7.30
2022-09-23T00:26:05.350Z,7.30
2022-09-23T00:36:11.210Z,7.73
2022-09-23T00:46:19.013Z,7.83
2022-09-23T00:56:26.300Z,8.10
2022-09-23T01:06:31.152Z,7.23
2022-09-23T01:16:53.803Z,7.70
2022-09-23T01:27:03.912Z,8.10
2022-09-23T01:37:25.150Z,6.60
2022-09-23T01:47:51.623Z,6.70
2022-09-23T01:58:01.548Z,7.50
2022-09-23T02:08:07.332Z,7.43
2022-09-23T02:18:15.630Z,6.90
2022-09-23T02:28:25.939Z,6.70
2022-09-23T02:38:44.271Z,6.33
2022-09-23T02:48:56.974Z,6.93
2022-09-23T02:59:02.301Z,6.77
2022-09-23T03:09:20.381Z,6.50
2022-09-23T03:19:22.485Z,6.33
2022-09-23T03:29:25.741Z,6.27
2022-09-23T03:39:46.248Z,6.77
2022-09-23T03:49:49.701Z,7.00
2022-09-23T03:59:52.313Z,6.83
2022-09-23T04:09:54.504Z,7.80
2022-09-23T04:19:56.630Z,7.07
2022-09-23T04:29:58.707Z,7.03
2022-09-23T04:40:03.894Z,7.00
2022-09-23T04:50:07.992Z,7.90
2022-09-23T05:00:15.578Z,7.07
2022-09-23T05:10:19.167Z,5.93
2022-09-23T05:20:21.772Z,5.70
2022-09-23T05:30:24.687Z,6.17
2022-09-23T05:40:29.363Z,6.13
2022-09-23T05:50:31.680Z,6.03
2022-09-23T06:00:33.648Z,5.97
2022-09-23T06:10:47.916Z,6.00
2022-09-23T06:20:58.079Z,6.07
2022-09-23T06:31:03.306Z,5.37
2022-09-23T06:41:07.284Z,5.45
2022-09-23T06:51:11.429Z,5.30
2022-09-23T07:01:17.682Z,4.95
2022-09-23T07:11:25.370Z,4.18
2022-09-23T07:21:28.084Z,4.22
2022-09-23T07:31:39.272Z,3.65
2022-09-23T07:41:44.960Z,3.75
2022-09-23T07:51:49.361Z,4.30
2022-09-23T08:01:52.896Z,4.50
2022-09-23T08:12:01.147Z,4.50
2022-09-23T08:22:03.182Z,4.35
2022-09-23T08:32:11.353Z,4.30
2022-09-23T08:42:30.192Z,4.22
2022-09-23T08:52:47.378Z,3.60
2022-09-23T09:02:53.715Z,3.50
2022-09-23T09:13:17.177Z,3.15
2022-09-23T09:23:24.908Z,2.25
2022-09-23T09:33:50.496Z,2.33
2022-09-23T09:43:57.370Z,1.85
2022-09-23T09:54:25.625Z,1.10
2022-09-23T10:04:36.732Z,1.23
2022-09-23T10:14:38.840Z,1.08
2022-09-23T10:24:43.927Z,1.20
2022-09-23T10:34:55.575Z,1.05
2022-09-23T10:45:28.141Z,1.35
2022-09-23T10:55:48.550Z,1.10
2022-09-23T11:06:04.128Z,1.20
2022-09-23T11:16:39.230Z,1.35
2022-09-23T11:27:16.180Z,1.17
2022-09-23T11:37:29.058Z,1.10
2022-09-23T11:47:39.813Z,1.10
2022-09-23T11:58:01.999Z,0.90
2022-09-23T12:08:25.954Z,1.45
2022-09-23T12:18:58.380Z,1.08
2022-09-23T12:29:03.642Z,1.70
2022-09-23T12:39:13.662Z,1.10
2022-09-23T12:49:39.414Z,1.10
2022-09-23T12:59:59.363Z,1.20
2022-09-23T13:10:21.262Z,1.30
2022-09-23T13:20:23.205Z,0.98
2022-09-23T13:30:32.284Z,1.83
2022-09-23T13:40:38.563Z,2.10
2022-09-23T13:50:52.303Z,0.80
2022-09-23T14:00:54.522Z,1.30
2022-09-23T14:10:57.865Z,1.38
2022-09-23T14:21:02.353Z,1.65
2022-09-23T14:31:05.514Z,1.42
2022-09-23T14:41:27.527Z,1.50
2022-09-23T14:51:32.383Z,1.00
2022-09-23T15:01:39.362Z,1.63
2022-09-23T15:11:44.356Z,1.25
2022-09-23T15:21:50.963Z,1.80
2022-09-23T15:31:55.735Z,1.52
2022-09-23T15:42:06.220Z,1.40
2022-09-23T15:52:12.542Z,1.42
2022-09-23T16:02:21.434Z,1.30
2022-09-23T16:12:27.385Z,2.00
2022-09-23T16:22:36.517Z,1.50
2022-09-23T16:32:40.831Z,1.65
2022-09-23T16:42:42.954Z,1.90
2022-09-23T16:52:58.552Z,1.90
2022-09-23T17:03:20.328Z,1.73
2022-09-23T17:13:23.435Z,2.13
2022-09-23T17:23:28.552Z,2.30
2022-09-23T17:33:37.874Z,2.00
2022-09-23T17:43:42.720Z,2.30
2022-09-23T17:53:46.775Z,2.37
2022-09-23T18:03:58.377Z,3.53
2022-09-23T18:14:07.928Z,3.38
2022-09-23T18:34:38.192Z,3.53
2022-09-23T18:44:43.548Z,4.10
2022-09-23T18:54:45.942Z,3.00
2022-09-23T19:04:48.156Z,2.90
2022-09-23T19:14:52.501Z,2.30
2022-09-23T19:24:54.730Z,4.07
2022-09-23T19:34:59.985Z,2.50
2022-09-23T19:45:05.009Z,2.23
2022-09-23T19:55:07.870Z,2.50
2022-09-23T20:05:12.133Z,2.50
2022-09-23T20:15:17.101Z,2.80
2022-09-23T20:25:22.559Z,2.83
2022-09-23T20:35:29.903Z,2.30
2022-09-23T20:45:32.326Z,2.80
2022-09-23T20:55:36.082Z,2.73
2022-09-23T21:05:42.507Z,2.70
2022-09-23T21:15:45.293Z,2.60
2022-09-23T21:25:51.459Z,2.93
2022-09-23T21:36:03.735Z,3.93
2022-09-23T21:46:13.283Z,3.33
2022-09-23T21:56:37.746Z,3.37
2022-09-23T22:06:40.646Z,2.73
2022-09-23T22:16:50.235Z,3.90
2022-09-23T22:26:55.720Z,4.87
2022-09-23T22:37:04.630Z,3.77
2022-09-23T22:47:11.811Z,3.20
2022-09-23T22:57:15.480Z,3.70
2022-09-23T23:07:23.020Z,3.97
2022-09-23T23:17:28.037Z,4.17
2022-09-23T23:27:32.852Z,5.67
2022-09-23T23:37:37.433Z,6.20
2022-09-23T23:47:40.382Z,7.20
2022-09-23T23:57:42.698Z,7.13
